sensor_id;sensor_type;location;lat;lon;timestamp;pressure;altitude;pressure_sealevel;temperature;humidity
43814;BME280;29669;55.706;37.656;2023-04-05T00:00:01;100190.47;;;8.02;nan
43814;BME280;29669;55.706;37.656;2023-04-05T00:02:36;100191.28;;;8.03;nan
43814;BME280;29669;55.706;37.656;2023-04-05T00:05:07;100191.56;;;8.00;nan
43814;BME280;29669;55.706;37.656;2023-04-05T00:07:36;100190.59;;;8.01;nan
43814;BME280;29669;55.706;37.656;2023-04-05T00:10:05;100190.59;;;8.01;nan
43814;BME280;29669;55.706;37.656;2023-04-05T00:12:33;100185.69;;;7.98;nan
43814;BME280;29669;55.706;37.656;2023-04-05T00:15:01;100186.78;;;7.95;nan
43814;BME280;29669;55.706;37.656;2023-04-05T00:17:30;100185.31;;;7.93;nan
43814;BME280;29669;55.706;37.656;2023-04-05T00:19:58;100190.47;;;7.93;nan
43814;BME280;29669;55.706;37.656;2023-04-05T00:22:27;100182.03;;;7.91;nan
43814;BME280;29669;55.706;37.656;2023-04-05T00:24:58;100184.19;;;7.86;nan
43814;BME280;29669;55.706;37.656;2023-04-05T00:27:25;100187.44;;;7.78;nan
43814;BME280;29669;55.706;37.656;2023-04-05T00:29:53;100180.38;;;7.71;nan
43814;BME280;29669;55.706;37.656;2023-04-05T00:32:21;100188.41;;;7.68;nan
43814;BME280;29669;55.706;37.656;2023-04-05T00:34:49;100186.06;;;7.64;nan
43814;BME280;29669;55.706;37.656;2023-04-05T00:37:17;100186.91;;;7.65;nan
43814;BME280;29669;55.706;37.656;2023-04-05T00:39:44;100178.06;;;7.68;nan
43814;BME280;29669;55.706;37.656;2023-04-05T00:42:13;100192.06;;;7.65;nan
43814;BME280;29669;55.706;37.656;2023-04-05T00:44:42;100194.38;;;7.58;nan
43814;BME280;29669;55.706;37.656;2023-04-05T00:47:09;100195.84;;;7.51;nan
43814;BME280;29669;55.706;37.656;2023-04-05T00:49:37;100198.28;;;7.43;nan
43814;BME280;29669;55.706;37.656;2023-04-05T00:52:05;100197.75;;;7.40;nan
43814;BME280;29669;55.706;37.656;2023-04-05T00:54:33;100200.84;;;7.34;nan
43814;BME280;29669;55.706;37.656;2023-04-05T00:57:01;100197.72;;;7.30;nan
43814;BME280;29669;55.706;37.656;2023-04-05T00:59:28;100206.66;;;7.26;nan
43814;BME280;29669;55.706;37.656;2023-04-05T01:02:00;100195.22;;;7.19;nan
43814;BME280;29669;55.706;37.656;2023-04-05T01:04:31;100201.34;;;7.18;nan
43814;BME280;29669;55.706;37.656;2023-04-05T01:12:04;100205.28;;;7.22;nan
43814;BME280;29669;55.706;37.656;2023-04-05T01:14:47;100206.91;;;7.23;nan
43814;BME280;29669;55.706;37.656;2023-04-05T01:17:17;100212.06;;;7.23;nan
43814;BME280;29669;55.706;37.656;2023-04-05T01:19:49;100205.28;;;7.22;nan
43814;BME280;29669;55.706;37.656;2023-04-05T01:30:22;100198.88;;;7.17;nan
43814;BME280;29669;55.706;37.656;2023-04-05T01:35:36;100204.44;;;7.12;nan
43814;BME280;29669;55.706;37.656;2023-04-05T01:38:06;100206.31;;;7.10;nan
43814;BME280;29669;55.706;37.656;2023-04-05T01:40:38;100203.03;;;7.08;nan
43814;BME280;29669;55.706;37.656;2023-04-05T01:43:15;100210.09;;;7.06;nan
43814;BME280;29669;55.706;37.656;2023-04-05T01:45:43;100205.75;;;7.07;nan
43814;BME280;29669;55.706;37.656;2023-04-05T01:48:12;100209.31;;;7.06;nan
43814;BME280;29669;55.706;37.656;2023-04-05T01:50:40;100211.19;;;7.04;nan
43814;BME280;29669;55.706;37.656;2023-04-05T01:53:08;100207.09;;;7.01;nan
43814;BME280;29669;55.706;37.656;2023-04-05T01:55:36;100207.38;;;6.98;nan
43814;BME280;29669;55.706;37.656;2023-04-05T01:58:04;100206.00;;;6.94;nan
43814;BME280;29669;55.706;37.656;2023-04-05T02:00:34;100212.09;;;6.93;nan
43814;BME280;29669;55.706;37.656;2023-04-05T02:03:02;100204.63;;;6.90;nan
43814;BME280;29669;55.706;37.656;2023-04-05T02:05:30;100210.69;;;6.89;nan
43814;BME280;29669;55.706;37.656;2023-04-05T02:07:59;100214.38;;;6.87;nan
43814;BME280;29669;55.706;37.656;2023-04-05T02:10:26;100218.16;;;6.83;nan
43814;BME280;29669;55.706;37.656;2023-04-05T02:12:54;100215.13;;;6.78;nan
43814;BME280;29669;55.706;37.656;2023-04-05T02:15:22;100217.84;;;6.76;nan
43814;BME280;29669;55.706;37.656;2023-04-05T02:17:50;100217.16;;;6.74;nan
43814;BME280;29669;55.706;37.656;2023-04-05T02:20:20;100227.47;;;6.74;nan
43814;BME280;29669;55.706;37.656;2023-04-05T02:22:48;100226.78;;;6.72;nan
43814;BME280;29669;55.706;37.656;2023-04-05T02:25:15;100230.44;;;6.70;nan
43814;BME280;29669;55.706;37.656;2023-04-05T02:27:43;100228.09;;;6.66;nan
43814;BME280;29669;55.706;37.656;2023-04-05T02:30:10;100223.22;;;6.63;nan
43814;BME280;29669;55.706;37.656;2023-04-05T02:32:41;100233.75;;;6.60;nan
43814;BME280;29669;55.706;37.656;2023-04-05T02:35:14;100236.34;;;6.60;nan
43814;BME280;29669;55.706;37.656;2023-04-05T02:37:43;100236.22;;;6.62;nan
43814;BME280;29669;55.706;37.656;2023-04-05T02:40:12;100237.84;;;6.63;nan
43814;BME280;29669;55.706;37.656;2023-04-05T02:42:41;100238.13;;;6.60;nan
43814;BME280;29669;55.706;37.656;2023-04-05T02:45:09;100239.19;;;6.57;nan
43814;BME280;29669;55.706;37.656;2023-04-05T02:47:37;100240.25;;;6.55;nan
43814;BME280;29669;55.706;37.656;2023-04-05T02:50:05;100246.63;;;6.51;nan
43814;BME280;29669;55.706;37.656;2023-04-05T02:52:40;100246.63;;;6.51;nan
43814;BME280;29669;55.706;37.656;2023-04-05T02:55:07;100243.91;;;6.52;nan
43814;BME280;29669;55.706;37.656;2023-04-05T02:57:35;100250.13;;;6.50;nan
43814;BME280;29669;55.706;37.656;2023-04-05T03:00:17;100251.19;;;6.47;nan
43814;BME280;29669;55.706;37.656;2023-04-05T03:02:45;100251.56;;;6.43;nan
43814;BME280;29669;55.706;37.656;2023-04-05T03:05:13;100256.03;;;6.41;nan
43814;BME280;29669;55.706;37.656;2023-04-05T03:07:48;100255.91;;;6.42;nan
43814;BME280;29669;55.706;37.656;2023-04-05T03:10:23;100251.31;;;6.46;nan
43814;BME280;29669;55.706;37.656;2023-04-05T03:12:56;100260.00;;;6.45;nan
43814;BME280;29669;55.706;37.656;2023-04-05T03:15:26;100256.59;;;6.44;nan
43814;BME280;29669;55.706;37.656;2023-04-05T03:17:56;100263.28;;;6.47;nan
43814;BME280;29669;55.706;37.656;2023-04-05T03:20:26;100261.41;;;6.49;nan
43814;BME280;29669;55.706;37.656;2023-04-05T03:22:59;100269.81;;;6.51;nan
43814;BME280;29669;55.706;37.656;2023-04-05T03:25:31;100260.06;;;6.54;nan
43814;BME280;29669;55.706;37.656;2023-04-05T03:27:59;100265.53;;;6.61;nan
43814;BME280;29669;55.706;37.656;2023-04-05T03:30:33;100268.19;;;6.71;nan
43814;BME280;29669;55.706;37.656;2023-04-05T03:33:13;100265.09;;;6.77;nan
43814;BME280;29669;55.706;37.656;2023-04-05T03:35:45;100267.31;;;6.81;nan
43814;BME280;29669;55.706;37.656;2023-04-05T03:38:13;100271.25;;;6.85;nan
43814;BME280;29669;55.706;37.656;2023-04-05T03:41:02;100278.50;;;6.91;nan
43814;BME280;29669;55.706;37.656;2023-04-05T03:43:30;100273.66;;;6.98;nan
43814;BME280;29669;55.706;37.656;2023-04-05T03:45:59;100281.94;;;7.01;nan
43814;BME280;29669;55.706;37.656;2023-04-05T03:48:28;100286.75;;;7.06;nan
43814;BME280;29669;55.706;37.656;2023-04-05T03:50:55;100294.78;;;7.12;nan
43814;BME280;29669;55.706;37.656;2023-04-05T03:53:23;100297.78;;;7.17;nan
43814;BME280;29669;55.706;37.656;2023-04-05T03:55:54;100288.03;;;7.21;nan
43814;BME280;29669;55.706;37.656;2023-04-05T03:58:44;100295.38;;;7.25;nan
43814;BME280;29669;55.706;37.656;2023-04-05T04:01:13;100295.84;;;7.30;nan
43814;BME280;29669;55.706;37.656;2023-04-05T04:03:41;100300.03;;;7.31;nan
43814;BME280;29669;55.706;37.656;2023-04-05T04:06:09;100296.63;;;7.31;nan
43814;BME280;29669;55.706;37.656;2023-04-05T04:08:37;100302.63;;;7.31;nan
43814;BME280;29669;55.706;37.656;2023-04-05T04:11:04;100310.09;;;7.34;nan
43814;BME280;29669;55.706;37.656;2023-04-05T04:13:36;100307.50;;;7.34;nan
43814;BME280;29669;55.706;37.656;2023-04-05T04:16:19;100315.25;;;7.34;nan
43814;BME280;29669;55.706;37.656;2023-04-05T04:19:10;100315.94;;;7.36;nan
43814;BME280;29669;55.706;37.656;2023-04-05T04:21:46;100317.84;;;7.34;nan
43814;BME280;29669;55.706;37.656;2023-04-05T04:24:40;100317.97;;;7.33;nan
43814;BME280;29669;55.706;37.656;2023-04-05T04:27:42;100323.44;;;7.39;nan
43814;BME280;29669;55.706;37.656;2023-04-05T04:30:31;100320.78;;;7.50;nan
43814;BME280;29669;55.706;37.656;2023-04-05T04:33:15;100325.72;;;7.63;nan
43814;BME280;29669;55.706;37.656;2023-04-05T04:35:55;100319.66;;;7.74;nan
43814;BME280;29669;55.706;37.656;2023-04-05T04:38:22;100327.28;;;7.85;nan
43814;BME280;29669;55.706;37.656;2023-04-05T04:41:25;100333.56;;;7.92;nan
43814;BME280;29669;55.706;37.656;2023-04-05T04:44:06;100327.88;;;7.98;nan
43814;BME280;29669;55.706;37.656;2023-04-05T04:46:45;100327.06;;;8.07;nan
43814;BME280;29669;55.706;37.656;2023-04-05T04:49:28;100323.38;;;8.00;nan
43814;BME280;29669;55.706;37.656;2023-04-05T04:51:56;100331.00;;;8.01;nan
43814;BME280;29669;55.706;37.656;2023-04-05T04:54:26;100326.94;;;8.08;nan
43814;BME280;29669;55.706;37.656;2023-04-05T04:56:53;100330.50;;;8.17;nan
43814;BME280;29669;55.706;37.656;2023-04-05T04:59:21;100330.88;;;8.12;nan
43814;BME280;29669;55.706;37.656;2023-04-05T05:01:48;100340.16;;;8.15;nan
43814;BME280;29669;55.706;37.656;2023-04-05T05:04:16;100342.06;;;8.13;nan
43814;BME280;29669;55.706;37.656;2023-04-05T05:06:44;100335.13;;;8.13;nan
43814;BME280;29669;55.706;37.656;2023-04-05T05:09:11;100342.78;;;8.24;nan
43814;BME280;29669;55.706;37.656;2023-04-05T05:11:59;100341.84;;;8.35;nan
43814;BME280;29669;55.706;37.656;2023-04-05T05:14:27;100342.13;;;8.51;nan
43814;BME280;29669;55.706;37.656;2023-04-05T05:16:55;100345.13;;;8.66;nan
43814;BME280;29669;55.706;37.656;2023-04-05T05:19:28;100350.44;;;8.74;nan
43814;BME280;29669;55.706;37.656;2023-04-05T05:21:55;100350.00;;;8.78;nan
43814;BME280;29669;55.706;37.656;2023-04-05T05:24:23;100353.28;;;8.80;nan
43814;BME280;29669;55.706;37.656;2023-04-05T05:26:51;100362.00;;;8.60;nan
43814;BME280;29669;55.706;37.656;2023-04-05T05:29:19;100353.31;;;8.42;nan
43814;BME280;29669;55.706;37.656;2023-04-05T05:31:48;100359.53;;;8.30;nan
43814;BME280;29669;55.706;37.656;2023-04-05T05:34:15;100360.75;;;8.26;nan
43814;BME280;29669;55.706;37.656;2023-04-05T05:36:48;100358.56;;;8.31;nan
43814;BME280;29669;55.706;37.656;2023-04-05T05:39:17;100361.16;;;8.40;nan
43814;BME280;29669;55.706;37.656;2023-04-05T05:41:45;100364.06;;;8.47;nan
43814;BME280;29669;55.706;37.656;2023-04-05T05:44:12;100361.75;;;8.44;nan
43814;BME280;29669;55.706;37.656;2023-04-05T05:46:40;100371.66;;;8.48;nan
43814;BME280;29669;55.706;37.656;2023-04-05T05:49:07;100372.09;;;8.63;nan
43814;BME280;29669;55.706;37.656;2023-04-05T05:51:35;100366.78;;;8.84;nan
43814;BME280;29669;55.706;37.656;2023-04-05T05:54:02;100360.94;;;8.91;nan
43814;BME280;29669;55.706;37.656;2023-04-05T05:56:30;100373.19;;;8.99;nan
43814;BME280;29669;55.706;37.656;2023-04-05T05:58:57;100374.53;;;9.03;nan
43814;BME280;29669;55.706;37.656;2023-04-05T06:01:25;100368.53;;;9.21;nan
43814;BME280;29669;55.706;37.656;2023-04-05T06:03:54;100366.28;;;9.36;nan
43814;BME280;29669;55.706;37.656;2023-04-05T06:06:22;100374.88;;;9.46;nan
43814;BME280;29669;55.706;37.656;2023-04-05T06:08:49;100366.25;;;9.55;nan
43814;BME280;29669;55.706;37.656;2023-04-05T06:11:20;100370.72;;;9.63;nan
43814;BME280;29669;55.706;37.656;2023-04-05T06:13:49;100365.78;;;9.60;nan
43814;BME280;29669;55.706;37.656;2023-04-05T06:16:19;100372.25;;;9.56;nan
43814;BME280;29669;55.706;37.656;2023-04-05T06:18:46;100372.47;;;9.62;nan
43814;BME280;29669;55.706;37.656;2023-04-05T06:21:14;100382.59;;;9.65;nan
43814;BME280;29669;55.706;37.656;2023-04-05T06:23:41;100385.84;;;9.58;nan
43814;BME280;29669;55.706;37.656;2023-04-05T06:26:18;100379.06;;;9.57;nan
43814;BME280;29669;55.706;37.656;2023-04-05T06:28:46;100383.13;;;9.69;nan
43814;BME280;29669;55.706;37.656;2023-04-05T06:31:14;100382.22;;;9.87;nan
43814;BME280;29669;55.706;37.656;2023-04-05T06:33:42;100390.47;;;10.00;nan
43814;BME280;29669;55.706;37.656;2023-04-05T06:36:10;100387.28;;;10.16;nan
43814;BME280;29669;55.706;37.656;2023-04-05T06:38:37;100385.66;;;10.15;nan
43814;BME280;29669;55.706;37.656;2023-04-05T06:41:05;100384.28;;;10.11;nan
43814;BME280;29669;55.706;37.656;2023-04-05T06:43:32;100385.91;;;10.21;nan
43814;BME280;29669;55.706;37.656;2023-04-05T06:46:00;100389.84;;;10.43;nan
43814;BME280;29669;55.706;37.656;2023-04-05T06:48:27;100380.31;;;10.61;nan
43814;BME280;29669;55.706;37.656;2023-04-05T06:50:58;100388.53;;;10.74;nan
43814;BME280;29669;55.706;37.656;2023-04-05T06:53:27;100384.38;;;10.81;nan
43814;BME280;29669;55.706;37.656;2023-04-05T06:55:55;100391.22;;;10.82;nan
43814;BME280;29669;55.706;37.656;2023-04-05T06:58:23;100383.78;;;10.87;nan
43814;BME280;29669;55.706;37.656;2023-04-05T07:00:51;100382.97;;;10.87;nan
43814;BME280;29669;55.706;37.656;2023-04-05T07:03:19;100394.47;;;10.84;nan
43814;BME280;29669;55.706;37.656;2023-04-05T07:08:18;100392.28;;;11.15;nan
43814;BME280;29669;55.706;37.656;2023-04-05T07:10:46;100383.06;;;11.20;nan
43814;BME280;29669;55.706;37.656;2023-04-05T07:13:13;100393.41;;;11.38;nan
43814;BME280;29669;55.706;37.656;2023-04-05T07:15:42;100387.25;;;11.65;nan
43814;BME280;29669;55.706;37.656;2023-04-05T07:18:09;100389.97;;;11.81;nan
43814;BME280;29669;55.706;37.656;2023-04-05T07:20:37;100385.81;;;11.96;nan
43814;BME280;29669;55.706;37.656;2023-04-05T07:23:05;100389.28;;;12.12;nan
43814;BME280;29669;55.706;37.656;2023-04-05T07:25:33;100382.97;;;12.23;nan
43814;BME280;29669;55.706;37.656;2023-04-05T07:28:01;100387.03;;;12.25;nan
43814;BME280;29669;55.706;37.656;2023-04-05T07:30:29;100388.53;;;12.36;nan
43814;BME280;29669;55.706;37.656;2023-04-05T07:32:57;100384.31;;;12.51;nan
43814;BME280;29669;55.706;37.656;2023-04-05T07:35:25;100388.75;;;12.67;nan
43814;BME280;29669;55.706;37.656;2023-04-05T07:37:52;100390.88;;;12.87;nan
43814;BME280;29669;55.706;37.656;2023-04-05T07:40:20;100389.91;;;12.96;nan
43814;BME280;29669;55.706;37.656;2023-04-05T07:42:47;100396.91;;;12.88;nan
43814;BME280;29669;55.706;37.656;2023-04-05T07:45:15;100390.25;;;13.01;nan
43814;BME280;29669;55.706;37.656;2023-04-05T07:47:42;100392.50;;;12.96;nan
43814;BME280;29669;55.706;37.656;2023-04-05T07:50:10;100395.16;;;13.12;nan
43814;BME280;29669;55.706;37.656;2023-04-05T07:52:41;100386.66;;;13.35;nan
43814;BME280;29669;55.706;37.656;2023-04-05T07:55:09;100384.50;;;13.54;nan
43814;BME280;29669;55.706;37.656;2023-04-05T07:57:38;100381.69;;;13.72;nan
43814;BME280;29669;55.706;37.656;2023-04-05T08:00:05;100380.53;;;13.74;nan
43814;BME280;29669;55.706;37.656;2023-04-05T08:02:41;100384.59;;;13.85;nan
43814;BME280;29669;55.706;37.656;2023-04-05T08:05:09;100390.44;;;13.87;nan
43814;BME280;29669;55.706;37.656;2023-04-05T08:07:36;100393.56;;;13.82;nan
43814;BME280;29669;55.706;37.656;2023-04-05T08:10:03;100394.38;;;13.83;nan
43814;BME280;29669;55.706;37.656;2023-04-05T08:12:32;100387.31;;;13.91;nan
43814;BME280;29669;55.706;37.656;2023-04-05T08:15:00;100398.19;;;14.03;nan
43814;BME280;29669;55.706;37.656;2023-04-05T08:17:27;100396.22;;;14.13;nan
43814;BME280;29669;55.706;37.656;2023-04-05T08:19:56;100394.25;;;14.15;nan
43814;BME280;29669;55.706;37.656;2023-04-05T08:22:26;100398.75;;;14.29;nan
43814;BME280;29669;55.706;37.656;2023-04-05T08:24:54;100398.00;;;14.51;nan
43814;BME280;29669;55.706;37.656;2023-04-05T08:27:21;100402.69;;;14.78;nan
43814;BME280;29669;55.706;37.656;2023-04-05T08:29:49;100404.56;;;14.92;nan
43814;BME280;29669;55.706;37.656;2023-04-05T08:32:17;100400.63;;;14.96;nan
43814;BME280;29669;55.706;37.656;2023-04-05T08:34:44;100397.66;;;14.99;nan
43814;BME280;29669;55.706;37.656;2023-04-05T08:37:12;100396.50;;;15.02;nan
43814;BME280;29669;55.706;37.656;2023-04-05T08:39:39;100397.47;;;15.01;nan
43814;BME280;29669;55.706;37.656;2023-04-05T08:42:09;100398.78;;;14.97;nan
43814;BME280;29669;55.706;37.656;2023-04-05T08:44:38;100396.78;;;14.84;nan
43814;BME280;29669;55.706;37.656;2023-04-05T08:47:07;100394.72;;;14.80;nan
43814;BME280;29669;55.706;37.656;2023-04-05T08:49:34;100392.00;;;14.88;nan
43814;BME280;29669;55.706;37.656;2023-04-05T08:52:02;100388.22;;;15.13;nan
43814;BME280;29669;55.706;37.656;2023-04-05T08:54:30;100383.00;;;15.13;nan
43814;BME280;29669;55.706;37.656;2023-04-05T08:56:58;100385.63;;;15.28;nan
43814;BME280;29669;55.706;37.656;2023-04-05T08:59:26;100393.47;;;15.65;nan
43814;BME280;29669;55.706;37.656;2023-04-05T09:01:53;100384.91;;;15.85;nan
43814;BME280;29669;55.706;37.656;2023-04-05T09:04:22;100392.91;;;15.98;nan
43814;BME280;29669;55.706;37.656;2023-04-05T09:06:50;100391.19;;;16.06;nan
43814;BME280;29669;55.706;37.656;2023-04-05T09:09:19;100395.97;;;16.02;nan
43814;BME280;29669;55.706;37.656;2023-04-05T09:11:47;100391.91;;;15.99;nan
43814;BME280;29669;55.706;37.656;2023-04-05T09:14:15;100391.72;;;16.01;nan
43814;BME280;29669;55.706;37.656;2023-04-05T09:16:43;100392.06;;;16.13;nan
43814;BME280;29669;55.706;37.656;2023-04-05T09:19:10;100389.72;;;16.18;nan
43814;BME280;29669;55.706;37.656;2023-04-05T09:21:57;100392.88;;;16.13;nan
43814;BME280;29669;55.706;37.656;2023-04-05T09:24:31;100395.34;;;16.00;nan
43814;BME280;29669;55.706;37.656;2023-04-05T09:27:04;100395.53;;;15.98;nan
43814;BME280;29669;55.706;37.656;2023-04-05T09:29:32;100397.22;;;16.21;nan
43814;BME280;29669;55.706;37.656;2023-04-05T09:32:02;100400.06;;;16.40;nan
43814;BME280;29669;55.706;37.656;2023-04-05T09:34:30;100393.31;;;16.31;nan
43814;BME280;29669;55.706;37.656;2023-04-05T09:37:00;100396.66;;;16.25;nan
43814;BME280;29669;55.706;37.656;2023-04-05T09:39:31;100390.22;;;16.28;nan
43814;BME280;29669;55.706;37.656;2023-04-05T09:42:09;100396.63;;;16.40;nan
43814;BME280;29669;55.706;37.656;2023-04-05T09:47:14;100386.84;;;16.63;nan
43814;BME280;29669;55.706;37.656;2023-04-05T09:49:42;100382.88;;;16.73;nan
43814;BME280;29669;55.706;37.656;2023-04-05T09:52:16;100385.63;;;16.86;nan
43814;BME280;29669;55.706;37.656;2023-04-05T09:54:44;100389.50;;;16.90;nan
43814;BME280;29669;55.706;37.656;2023-04-05T09:57:11;100383.81;;;16.87;nan
43814;BME280;29669;55.706;37.656;2023-04-05T09:59:39;100382.25;;;16.92;nan
43814;BME280;29669;55.706;37.656;2023-04-05T10:02:06;100376.50;;;16.82;nan
43814;BME280;29669;55.706;37.656;2023-04-05T10:04:38;100376.91;;;16.79;nan
43814;BME280;29669;55.706;37.656;2023-04-05T10:07:10;100382.03;;;16.66;nan
43814;BME280;29669;55.706;37.656;2023-04-05T10:09:41;100371.84;;;16.57;nan
43814;BME280;29669;55.706;37.656;2023-04-05T10:12:09;100371.41;;;16.53;nan
43814;BME280;29669;55.706;37.656;2023-04-05T10:14:39;100378.09;;;16.56;nan
43814;BME280;29669;55.706;37.656;2023-04-05T10:17:11;100375.72;;;16.61;nan
43814;BME280;29669;55.706;37.656;2023-04-05T10:22:07;100376.34;;;16.63;nan
43814;BME280;29669;55.706;37.656;2023-04-05T10:24:47;100371.28;;;16.47;nan
43814;BME280;29669;55.706;37.656;2023-04-05T10:30:02;100375.78;;;16.67;nan
43814;BME280;29669;55.706;37.656;2023-04-05T10:35:08;100373.28;;;16.80;nan
43814;BME280;29669;55.706;37.656;2023-04-05T11:00:08;100378.38;;;17.10;nan
43814;BME280;29669;55.706;37.656;2023-04-05T11:02:37;100372.59;;;16.93;nan
43814;BME280;29669;55.706;37.656;2023-04-05T11:05:05;100368.94;;;16.94;nan
43814;BME280;29669;55.706;37.656;2023-04-05T11:07:42;100365.06;;;17.11;nan
43814;BME280;29669;55.706;37.656;2023-04-05T11:10:17;100367.34;;;17.21;nan
43814;BME280;29669;55.706;37.656;2023-04-05T11:20:48;100365.97;;;17.25;nan
43814;BME280;29669;55.706;37.656;2023-04-05T11:23:21;100363.00;;;17.34;nan
43814;BME280;29669;55.706;37.656;2023-04-05T11:25:52;100359.75;;;17.26;nan
43814;BME280;29669;55.706;37.656;2023-04-05T11:28:23;100353.97;;;17.37;nan
43814;BME280;29669;55.706;37.656;2023-04-05T11:30:51;100350.25;;;17.52;nan
43814;BME280;29669;55.706;37.656;2023-04-05T11:36:08;100346.94;;;17.78;nan
43814;BME280;29669;55.706;37.656;2023-04-05T11:38:37;100348.03;;;17.90;nan
43814;BME280;29669;55.706;37.656;2023-04-05T11:41:11;100351.06;;;18.00;nan
43814;BME280;29669;55.706;37.656;2023-04-05T11:43:39;100352.31;;;18.04;nan
43814;BME280;29669;55.706;37.656;2023-04-05T11:46:08;100348.53;;;17.79;nan
43814;BME280;29669;55.706;37.656;2023-04-05T11:48:36;100348.06;;;17.62;nan
43814;BME280;29669;55.706;37.656;2023-04-05T11:51:06;100348.06;;;17.56;nan
43814;BME280;29669;55.706;37.656;2023-04-05T11:53:34;100343.16;;;17.53;nan
43814;BME280;29669;55.706;37.656;2023-04-05T11:56:08;100350.13;;;17.39;nan
43814;BME280;29669;55.706;37.656;2023-04-05T11:58:36;100338.22;;;17.37;nan
43814;BME280;29669;55.706;37.656;2023-04-05T12:01:04;100333.50;;;17.26;nan
43814;BME280;29669;55.706;37.656;2023-04-05T12:03:34;100340.59;;;17.32;nan
43814;BME280;29669;55.706;37.656;2023-04-05T12:06:02;100345.06;;;17.38;nan
43814;BME280;29669;55.706;37.656;2023-04-05T12:08:40;100336.00;;;17.40;nan
43814;BME280;29669;55.706;37.656;2023-04-05T12:11:09;100340.25;;;17.41;nan
43814;BME280;29669;55.706;37.656;2023-04-05T12:13:37;100335.88;;;17.48;nan
43814;BME280;29669;55.706;37.656;2023-04-05T12:16:05;100343.13;;;17.46;nan
43814;BME280;29669;55.706;37.656;2023-04-05T12:18:34;100335.81;;;17.42;nan
43814;BME280;29669;55.706;37.656;2023-04-05T12:21:02;100340.31;;;17.48;nan
43814;BME280;29669;55.706;37.656;2023-04-05T12:23:33;100325.25;;;17.63;nan
43814;BME280;29669;55.706;37.656;2023-04-05T12:26:01;100327.69;;;17.64;nan
43814;BME280;29669;55.706;37.656;2023-04-05T12:31:16;100327.75;;;17.77;nan
43814;BME280;29669;55.706;37.656;2023-04-05T12:33:43;100329.59;;;17.77;nan
43814;BME280;29669;55.706;37.656;2023-04-05T12:38:38;100328.03;;;17.55;nan
43814;BME280;29669;55.706;37.656;2023-04-05T12:41:06;100331.06;;;17.52;nan
43814;BME280;29669;55.706;37.656;2023-04-05T12:43:40;100329.69;;;17.56;nan
43814;BME280;29669;55.706;37.656;2023-04-05T12:46:08;100336.38;;;17.65;nan
43814;BME280;29669;55.706;37.656;2023-04-05T12:48:37;100328.03;;;17.96;nan
43814;BME280;29669;55.706;37.656;2023-04-05T12:51:12;100332.28;;;18.90;nan
43814;BME280;29669;55.706;37.656;2023-04-05T12:53:44;100323.84;;;19.78;nan
43814;BME280;29669;55.706;37.656;2023-04-05T12:56:12;100330.09;;;20.27;nan
43814;BME280;29669;55.706;37.656;2023-04-05T12:58:41;100333.63;;;20.46;nan
43814;BME280;29669;55.706;37.656;2023-04-05T13:01:09;100337.19;;;20.89;nan
43814;BME280;29669;55.706;37.656;2023-04-05T13:03:37;100325.44;;;20.85;nan
43814;BME280;29669;55.706;37.656;2023-04-05T13:06:04;100324.19;;;20.88;nan
43814;BME280;29669;55.706;37.656;2023-04-05T13:08:32;100319.38;;;21.27;nan
43814;BME280;29669;55.706;37.656;2023-04-05T13:11:00;100328.72;;;21.66;nan
43814;BME280;29669;55.706;37.656;2023-04-05T13:13:27;100324.72;;;21.82;nan
43814;BME280;29669;55.706;37.656;2023-04-05T13:15:55;100308.75;;;22.48;nan
43814;BME280;29669;55.706;37.656;2023-04-05T13:18:23;100317.22;;;22.91;nan
43814;BME280;29669;55.706;37.656;2023-04-05T13:20:51;100315.75;;;23.18;nan
43814;BME280;29669;55.706;37.656;2023-04-05T13:23:18;100325.66;;;23.34;nan
43814;BME280;29669;55.706;37.656;2023-04-05T13:25:46;100309.41;;;23.54;nan
43814;BME280;29669;55.706;37.656;2023-04-05T13:28:13;100320.16;;;23.75;nan
43814;BME280;29669;55.706;37.656;2023-04-05T13:30:41;100319.03;;;23.71;nan
43814;BME280;29669;55.706;37.656;2023-04-05T13:33:08;100320.50;;;23.79;nan
43814;BME280;29669;55.706;37.656;2023-04-05T13:35:36;100327.66;;;23.78;nan
43814;BME280;29669;55.706;37.656;2023-04-05T13:38:03;100328.31;;;23.85;nan
43814;BME280;29669;55.706;37.656;2023-04-05T13:40:32;100312.31;;;23.80;nan
43814;BME280;29669;55.706;37.656;2023-04-05T13:43:00;100324.97;;;23.90;nan
43814;BME280;29669;55.706;37.656;2023-04-05T13:45:27;100319.75;;;23.55;nan
43814;BME280;29669;55.706;37.656;2023-04-05T13:47:54;100317.47;;;23.47;nan
43814;BME280;29669;55.706;37.656;2023-04-05T13:50:22;100317.81;;;23.16;nan
43814;BME280;29669;55.706;37.656;2023-04-05T13:52:50;100313.66;;;23.43;nan
43814;BME280;29669;55.706;37.656;2023-04-05T13:55:18;100322.66;;;23.93;nan
43814;BME280;29669;55.706;37.656;2023-04-05T13:57:46;100316.66;;;24.26;nan
43814;BME280;29669;55.706;37.656;2023-04-05T14:00:14;100327.63;;;24.63;nan
43814;BME280;29669;55.706;37.656;2023-04-05T14:02:42;100331.88;;;24.92;nan
43814;BME280;29669;55.706;37.656;2023-04-05T14:05:10;100326.34;;;24.49;nan
43814;BME280;29669;55.706;37.656;2023-04-05T14:07:37;100343.94;;;23.98;nan
43814;BME280;29669;55.706;37.656;2023-04-05T14:10:05;100333.38;;;24.26;nan
43814;BME280;29669;55.706;37.656;2023-04-05T14:12:33;100340.44;;;24.66;nan
43814;BME280;29669;55.706;37.656;2023-04-05T14:15:00;100345.38;;;25.07;nan
43814;BME280;29669;55.706;37.656;2023-04-05T14:17:29;100344.34;;;25.46;nan
43814;BME280;29669;55.706;37.656;2023-04-05T14:19:57;100346.22;;;25.67;nan
43814;BME280;29669;55.706;37.656;2023-04-05T14:22:24;100340.91;;;25.67;nan
43814;BME280;29669;55.706;37.656;2023-04-05T14:24:52;100346.28;;;25.34;nan